sensor_id;sensor_type;location;lat;lon;timestamp;P1;durP1;ratioP1;P2;durP2;ratioP2
47860;SDS011;33620;52.340;5.984;2022-08-19T00:00:37;14.70;;;9.45;;
47860;SDS011;33620;52.340;5.984;2022-08-19T00:03:03;17.08;;;9.18;;
47860;SDS011;33620;52.340;5.984;2022-08-19T00:05:30;18.70;;;10.50;;
47860;SDS011;33620;52.340;5.984;2022-08-19T00:07:56;17.00;;;9.68;;
47860;SDS011;33620;52.340;5.984;2022-08-19T00:10:22;16.95;;;10.40;;
47860;SDS011;33620;52.340;5.984;2022-08-19T00:12:48;19.23;;;10.43;;
47860;SDS011;33620;52.340;5.984;2022-08-19T00:15:15;18.17;;;10.27;;
47860;SDS011;33620;52.340;5.984;2022-08-19T00:17:42;18.10;;;10.70;;
47860;SDS011;33620;52.340;5.984;2022-08-19T00:20:09;15.98;;;10.15;;
47860;SDS011;33620;52.340;5.984;2022-08-19T00:22:38;17.88;;;10.45;;
47860;SDS011;33620;52.340;5.984;2022-08-19T00:25:06;17.17;;;10.45;;
47860;SDS011;33620;52.340;5.984;2022-08-19T00:27:32;18.08;;;10.27;;
47860;SDS011;33620;52.340;5.984;2022-08-19T00:29:58;17.05;;;10.52;;
47860;SDS011;33620;52.340;5.984;2022-08-19T00:32:23;17.50;;;10.85;;
47860;SDS011;33620;52.340;5.984;2022-08-19T00:34:50;18.52;;;11.00;;
47860;SDS011;33620;52.340;5.984;2022-08-19T00:37:22;19.95;;;11.32;;
47860;SDS011;33620;52.340;5.984;2022-08-19T00:39:48;21.67;;;11.80;;
47860;SDS011;33620;52.340;5.984;2022-08-19T00:42:16;19.08;;;11.13;;
47860;SDS011;33620;52.340;5.984;2022-08-19T00:44:41;21.80;;;11.20;;
47860;SDS011;33620;52.340;5.984;2022-08-19T00:47:08;18.20;;;10.77;;
47860;SDS011;33620;52.340;5.984;2022-08-19T00:49:41;19.88;;;11.18;;
47860;SDS011;33620;52.340;5.984;2022-08-19T00:52:16;20.10;;;11.93;;
47860;SDS011;33620;52.340;5.984;2022-08-19T00:54:45;19.20;;;11.82;;
47860;SDS011;33620;52.340;5.984;2022-08-19T00:57:13;21.80;;;12.88;;
47860;SDS011;33620;52.340;5.984;2022-08-19T00:59:42;21.85;;;12.20;;
47860;SDS011;33620;52.340;5.984;2022-08-19T01:02:11;21.50;;;13.25;;
47860;SDS011;33620;52.340;5.984;2022-08-19T01:04:37;21.77;;;12.57;;
47860;SDS011;33620;52.340;5.984;2022-08-19T01:07:02;22.35;;;12.70;;
47860;SDS011;33620;52.340;5.984;2022-08-19T01:09:28;21.85;;;12.50;;
47860;SDS011;33620;52.340;5.984;2022-08-19T01:11:55;21.85;;;13.43;;
47860;SDS011;33620;52.340;5.984;2022-08-19T01:14:21;22.30;;;11.93;;
47860;SDS011;33620;52.340;5.984;2022-08-19T01:16:47;20.58;;;11.25;;
47860;SDS011;33620;52.340;5.984;2022-08-19T01:19:18;20.25;;;11.82;;
47860;SDS011;33620;52.340;5.984;2022-08-19T01:21:52;20.17;;;11.63;;
47860;SDS011;33620;52.340;5.984;2022-08-19T01:24:26;19.10;;;11.93;;
47860;SDS011;33620;52.340;5.984;2022-08-19T01:26:51;21.33;;;11.90;;
47860;SDS011;33620;52.340;5.984;2022-08-19T01:29:17;21.52;;;12.10;;
47860;SDS011;33620;52.340;5.984;2022-08-19T01:31:42;20.55;;;12.75;;
47860;SDS011;33620;52.340;5.984;2022-08-19T01:34:08;21.88;;;13.00;;
47860;SDS011;33620;52.340;5.984;2022-08-19T01:36:44;19.48;;;11.90;;
47860;SDS011;33620;52.340;5.984;2022-08-19T01:39:11;20.38;;;12.93;;
47860;SDS011;33620;52.340;5.984;2022-08-19T01:41:38;20.95;;;12.68;;
47860;SDS011;33620;52.340;5.984;2022-08-19T01:44:04;21.00;;;12.40;;
47860;SDS011;33620;52.340;5.984;2022-08-19T01:46:31;23.88;;;12.85;;
47860;SDS011;33620;52.340;5.984;2022-08-19T01:48:57;21.08;;;11.95;;
47860;SDS011;33620;52.340;5.984;2022-08-19T01:51:23;20.40;;;11.77;;
47860;SDS011;33620;52.340;5.984;2022-08-19T01:53:50;21.02;;;12.50;;
47860;SDS011;33620;52.340;5.984;2022-08-19T01:56:16;21.48;;;11.70;;
47860;SDS011;33620;52.340;5.984;2022-08-19T01:58:44;20.75;;;11.38;;
47860;SDS011;33620;52.340;5.984;2022-08-19T02:01:15;18.30;;;10.88;;
47860;SDS011;33620;52.340;5.984;2022-08-19T02:03:42;20.70;;;11.10;;
47860;SDS011;33620;52.340;5.984;2022-08-19T02:06:08;21.38;;;12.65;;
47860;SDS011;33620;52.340;5.984;2022-08-19T02:08:34;19.45;;;12.23;;
47860;SDS011;33620;52.340;5.984;2022-08-19T02:11:01;22.70;;;13.38;;
47860;SDS011;33620;52.340;5.984;2022-08-19T02:13:27;22.85;;;12.82;;
47860;SDS011;33620;52.340;5.984;2022-08-19T02:15:53;20.38;;;12.10;;
47860;SDS011;33620;52.340;5.984;2022-08-19T02:18:18;17.48;;;11.18;;
47860;SDS011;33620;52.340;5.984;2022-08-19T02:20:44;20.83;;;11.98;;
47860;SDS011;33620;52.340;5.984;2022-08-19T02:23:12;17.25;;;10.57;;
47860;SDS011;33620;52.340;5.984;2022-08-19T02:25:38;20.02;;;11.63;;
47860;SDS011;33620;52.340;5.984;2022-08-19T02:28:04;19.75;;;11.40;;
47860;SDS011;33620;52.340;5.984;2022-08-19T02:30:30;18.40;;;10.68;;
47860;SDS011;33620;52.340;5.984;2022-08-19T02:32:55;23.65;;;13.52;;
47860;SDS011;33620;52.340;5.984;2022-08-19T02:35:21;21.02;;;12.45;;
47860;SDS011;33620;52.340;5.984;2022-08-19T02:37:46;20.73;;;11.75;;
47860;SDS011;33620;52.340;5.984;2022-08-19T02:40:31;22.33;;;13.10;;
47860;SDS011;33620;52.340;5.984;2022-08-19T02:43:01;21.15;;;13.00;;
47860;SDS011;33620;52.340;5.984;2022-08-19T02:45:31;18.48;;;10.52;;
47860;SDS011;33620;52.340;5.984;2022-08-19T02:47:58;19.35;;;10.32;;
47860;SDS011;33620;52.340;5.984;2022-08-19T02:50:23;15.68;;;9.43;;
47860;SDS011;33620;52.340;5.984;2022-08-19T02:52:49;17.63;;;9.32;;
47860;SDS011;33620;52.340;5.984;2022-08-19T02:55:14;17.95;;;9.52;;
47860;SDS011;33620;52.340;5.984;2022-08-19T02:57:39;16.77;;;9.23;;
47860;SDS011;33620;52.340;5.984;2022-08-19T03:00:06;17.45;;;9.77;;
47860;SDS011;33620;52.340;5.984;2022-08-19T03:02:33;17.00;;;9.02;;
47860;SDS011;33620;52.340;5.984;2022-08-19T03:04:58;14.95;;;8.40;;
47860;SDS011;33620;52.340;5.984;2022-08-19T03:07:24;13.65;;;7.80;;
47860;SDS011;33620;52.340;5.984;2022-08-19T03:09:49;14.10;;;7.72;;
47860;SDS011;33620;52.340;5.984;2022-08-19T03:12:14;13.93;;;8.27;;
47860;SDS011;33620;52.340;5.984;2022-08-19T03:14:40;12.45;;;6.50;;
47860;SDS011;33620;52.340;5.984;2022-08-19T03:17:07;12.38;;;7.45;;
47860;SDS011;33620;52.340;5.984;2022-08-19T03:19:32;13.50;;;7.93;;
47860;SDS011;33620;52.340;5.984;2022-08-19T03:21:58;15.90;;;8.73;;
47860;SDS011;33620;52.340;5.984;2022-08-19T03:24:23;17.65;;;9.20;;
47860;SDS011;33620;52.340;5.984;2022-08-19T03:26:53;17.00;;;9.27;;
47860;SDS011;33620;52.340;5.984;2022-08-19T03:29:23;13.68;;;8.20;;
47860;SDS011;33620;52.340;5.984;2022-08-19T03:31:52;16.92;;;9.73;;
47860;SDS011;33620;52.340;5.984;2022-08-19T03:34:20;16.23;;;8.55;;
47860;SDS011;33620;52.340;5.984;2022-08-19T03:36:52;15.05;;;8.63;;
47860;SDS011;33620;52.340;5.984;2022-08-19T03:39:19;14.13;;;8.23;;
47860;SDS011;33620;52.340;5.984;2022-08-19T03:41:45;15.55;;;9.27;;
47860;SDS011;33620;52.340;5.984;2022-08-19T03:44:21;16.40;;;8.68;;
47860;SDS011;33620;52.340;5.984;2022-08-19T03:46:48;15.60;;;8.52;;
47860;SDS011;33620;52.340;5.984;2022-08-19T03:49:20;14.63;;;8.15;;
47860;SDS011;33620;52.340;5.984;2022-08-19T03:51:47;13.23;;;7.30;;
47860;SDS011;33620;52.340;5.984;2022-08-19T03:54:14;14.60;;;6.90;;
47860;SDS011;33620;52.340;5.984;2022-08-19T03:56:41;12.75;;;6.80;;
47860;SDS011;33620;52.340;5.984;2022-08-19T03:59:09;13.02;;;7.38;;
47860;SDS011;33620;52.340;5.984;2022-08-19T04:01:38;13.65;;;7.30;;
47860;SDS011;33620;52.340;5.984;2022-08-19T04:04:03;11.73;;;6.50;;
47860;SDS011;33620;52.340;5.984;2022-08-19T04:06:31;10.95;;;6.35;;
47860;SDS011;33620;52.340;5.984;2022-08-19T04:08:58;14.70;;;6.25;;
47860;SDS011;33620;52.340;5.984;2022-08-19T04:11:27;11.30;;;5.65;;
47860;SDS011;33620;52.340;5.984;2022-08-19T04:13:59;14.65;;;7.80;;
47860;SDS011;33620;52.340;5.984;2022-08-19T04:16:25;13.98;;;7.05;;
47860;SDS011;33620;52.340;5.984;2022-08-19T04:18:55;13.60;;;7.20;;
47860;SDS011;33620;52.340;5.984;2022-08-19T04:21:23;12.20;;;6.90;;
47860;SDS011;33620;52.340;5.984;2022-08-19T04:23:50;12.15;;;7.05;;
47860;SDS011;33620;52.340;5.984;2022-08-19T04:26:17;10.20;;;6.15;;
47860;SDS011;33620;52.340;5.984;2022-08-19T04:28:44;14.13;;;6.88;;
47860;SDS011;33620;52.340;5.984;2022-08-19T04:31:14;11.40;;;6.68;;
47860;SDS011;33620;52.340;5.984;2022-08-19T04:33:41;15.70;;;7.60;;
47860;SDS011;33620;52.340;5.984;2022-08-19T04:36:06;17.38;;;8.45;;
47860;SDS011;33620;52.340;5.984;2022-08-19T04:38:32;18.70;;;10.38;;
47860;SDS011;33620;52.340;5.984;2022-08-19T04:40:58;18.27;;;9.30;;
47860;SDS011;33620;52.340;5.984;2022-08-19T04:43:42;15.50;;;8.38;;
47860;SDS011;33620;52.340;5.984;2022-08-19T04:46:14;18.60;;;9.75;;
47860;SDS011;33620;52.340;5.984;2022-08-19T04:48:39;18.70;;;9.70;;
47860;SDS011;33620;52.340;5.984;2022-08-19T04:51:07;18.05;;;9.15;;
47860;SDS011;33620;52.340;5.984;2022-08-19T04:53:35;16.52;;;8.88;;
47860;SDS011;33620;52.340;5.984;2022-08-19T04:56:07;18.08;;;9.40;;
47860;SDS011;33620;52.340;5.984;2022-08-19T04:58:34;18.02;;;8.98;;
47860;SDS011;33620;52.340;5.984;2022-08-19T05:00:59;17.13;;;9.50;;
47860;SDS011;33620;52.340;5.984;2022-08-19T05:03:25;16.00;;;8.85;;
47860;SDS011;33620;52.340;5.984;2022-08-19T05:05:51;15.40;;;7.78;;
47860;SDS011;33620;52.340;5.984;2022-08-19T05:08:18;14.40;;;6.22;;
47860;SDS011;33620;52.340;5.984;2022-08-19T05:10:46;12.90;;;6.80;;
47860;SDS011;33620;52.340;5.984;2022-08-19T05:13:13;12.45;;;6.63;;
47860;SDS011;33620;52.340;5.984;2022-08-19T05:15:39;10.32;;;6.25;;
47860;SDS011;33620;52.340;5.984;2022-08-19T05:18:05;13.10;;;6.55;;
47860;SDS011;33620;52.340;5.984;2022-08-19T05:20:50;15.65;;;7.70;;
47860;SDS011;33620;52.340;5.984;2022-08-19T05:23:34;14.77;;;7.90;;
47860;SDS011;33620;52.340;5.984;2022-08-19T05:25:59;16.63;;;9.77;;
47860;SDS011;33620;52.340;5.984;2022-08-19T05:28:24;18.98;;;9.93;;
47860;SDS011;33620;52.340;5.984;2022-08-19T05:30:50;18.52;;;9.15;;
47860;SDS011;33620;52.340;5.984;2022-08-19T05:33:16;18.60;;;10.35;;
47860;SDS011;33620;52.340;5.984;2022-08-19T05:35:42;20.92;;;11.30;;
47860;SDS011;33620;52.340;5.984;2022-08-19T05:38:09;18.92;;;10.35;;
47860;SDS011;33620;52.340;5.984;2022-08-19T05:40:36;19.98;;;10.60;;
47860;SDS011;33620;52.340;5.984;2022-08-19T05:43:03;20.02;;;11.10;;
47860;SDS011;33620;52.340;5.984;2022-08-19T05:45:30;24.13;;;13.20;;
47860;SDS011;33620;52.340;5.984;2022-08-19T05:47:55;23.02;;;13.30;;
47860;SDS011;33620;52.340;5.984;2022-08-19T05:50:21;24.75;;;13.68;;
47860;SDS011;33620;52.340;5.984;2022-08-19T05:52:47;24.80;;;14.60;;
47860;SDS011;33620;52.340;5.984;2022-08-19T05:55:12;26.88;;;13.85;;
47860;SDS011;33620;52.340;5.984;2022-08-19T05:57:38;25.00;;;13.52;;
47860;SDS011;33620;52.340;5.984;2022-08-19T06:00:05;26.40;;;14.40;;
47860;SDS011;33620;52.340;5.984;2022-08-19T06:02:34;27.65;;;15.30;;
47860;SDS011;33620;52.340;5.984;2022-08-19T06:05:00;28.50;;;15.60;;
47860;SDS011;33620;52.340;5.984;2022-08-19T06:07:27;27.63;;;16.35;;
47860;SDS011;33620;52.340;5.984;2022-08-19T06:09:53;25.23;;;14.35;;
47860;SDS011;33620;52.340;5.984;2022-08-19T06:12:19;29.63;;;16.15;;
47860;SDS011;33620;52.340;5.984;2022-08-19T06:14:44;28.13;;;16.40;;
47860;SDS011;33620;52.340;5.984;2022-08-19T06:17:10;27.27;;;15.68;;
47860;SDS011;33620;52.340;5.984;2022-08-19T06:19:37;26.42;;;15.05;;
47860;SDS011;33620;52.340;5.984;2022-08-19T06:22:02;26.55;;;14.23;;
47860;SDS011;33620;52.340;5.984;2022-08-19T06:24:29;29.25;;;15.85;;
47860;SDS011;33620;52.340;5.984;2022-08-19T06:26:55;28.23;;;15.57;;
47860;SDS011;33620;52.340;5.984;2022-08-19T06:29:22;29.00;;;17.13;;
47860;SDS011;33620;52.340;5.984;2022-08-19T06:31:50;25.13;;;14.27;;
47860;SDS011;33620;52.340;5.984;2022-08-19T06:34:17;30.60;;;16.67;;
47860;SDS011;33620;52.340;5.984;2022-08-19T06:36:45;25.30;;;14.65;;
47860;SDS011;33620;52.340;5.984;2022-08-19T06:39:14;29.17;;;17.15;;
47860;SDS011;33620;52.340;5.984;2022-08-19T06:41:45;26.73;;;17.15;;
47860;SDS011;33620;52.340;5.984;2022-08-19T06:44:13;29.25;;;16.70;;
47860;SDS011;33620;52.340;5.984;2022-08-19T06:46:42;31.73;;;17.83;;
47860;SDS011;33620;52.340;5.984;2022-08-19T06:49:07;29.60;;;17.48;;
47860;SDS011;33620;52.340;5.984;2022-08-19T06:51:39;34.22;;;20.20;;
47860;SDS011;33620;52.340;5.984;2022-08-19T06:54:06;29.90;;;16.95;;
47860;SDS011;33620;52.340;5.984;2022-08-19T06:56:32;30.50;;;18.38;;
47860;SDS011;33620;52.340;5.984;2022-08-19T06:59:02;28.30;;;18.42;;
47860;SDS011;33620;52.340;5.984;2022-08-19T07:01:30;28.20;;;18.52;;
47860;SDS011;33620;52.340;5.984;2022-08-19T07:03:59;33.70;;;21.30;;
47860;SDS011;33620;52.340;5.984;2022-08-19T07:06:26;35.85;;;21.88;;
47860;SDS011;33620;52.340;5.984;2022-08-19T07:08:51;39.38;;;25.00;;
47860;SDS011;33620;52.340;5.984;2022-08-19T07:11:17;39.08;;;24.60;;
47860;SDS011;33620;52.340;5.984;2022-08-19T07:13:44;48.50;;;31.35;;
47860;SDS011;33620;52.340;5.984;2022-08-19T07:16:12;47.28;;;33.10;;
47860;SDS011;33620;52.340;5.984;2022-08-19T07:18:39;48.60;;;32.65;;
47860;SDS011;33620;52.340;5.984;2022-08-19T07:21:07;54.22;;;34.55;;
47860;SDS011;33620;52.340;5.984;2022-08-19T07:23:34;47.67;;;31.33;;
47860;SDS011;33620;52.340;5.984;2022-08-19T07:26:06;47.97;;;29.67;;
47860;SDS011;33620;52.340;5.984;2022-08-19T07:28:55;50.40;;;31.55;;
47860;SDS011;33620;52.340;5.984;2022-08-19T07:31:23;48.55;;;31.50;;
47860;SDS011;33620;52.340;5.984;2022-08-19T07:33:50;47.20;;;30.45;;
47860;SDS011;33620;52.340;5.984;2022-08-19T07:36:18;48.38;;;31.05;;
47860;SDS011;33620;52.340;5.984;2022-08-19T07:38:48;47.17;;;30.25;;
47860;SDS011;33620;52.340;5.984;2022-08-19T07:41:18;43.53;;;28.98;;
47860;SDS011;33620;52.340;5.984;2022-08-19T07:43:47;49.30;;;31.90;;
47860;SDS011;33620;52.340;5.984;2022-08-19T07:46:14;46.85;;;29.92;;
47860;SDS011;33620;52.340;5.984;2022-08-19T07:48:41;44.25;;;29.73;;
47860;SDS011;33620;52.340;5.984;2022-08-19T07:51:08;46.88;;;31.00;;
47860;SDS011;33620;52.340;5.984;2022-08-19T07:53:35;47.17;;;29.92;;
47860;SDS011;33620;52.340;5.984;2022-08-19T07:56:01;42.47;;;27.10;;
47860;SDS011;33620;52.340;5.984;2022-08-19T07:58:30;46.63;;;28.67;;
47860;SDS011;33620;52.340;5.984;2022-08-19T08:00:57;40.63;;;25.17;;
47860;SDS011;33620;52.340;5.984;2022-08-19T08:03:23;42.33;;;26.73;;
47860;SDS011;33620;52.340;5.984;2022-08-19T08:06:09;41.10;;;26.98;;
47860;SDS011;33620;52.340;5.984;2022-08-19T08:08:54;34.40;;;23.70;;
47860;SDS011;33620;52.340;5.984;2022-08-19T08:11:45;40.75;;;26.65;;
47860;SDS011;33620;52.340;5.984;2022-08-19T08:14:15;36.63;;;23.30;;
47860;SDS011;33620;52.340;5.984;2022-08-19T08:16:47;40.10;;;26.15;;
47860;SDS011;33620;52.340;5.984;2022-08-19T08:19:16;42.03;;;25.42;;
47860;SDS011;33620;52.340;5.984;2022-08-19T08:21:43;37.60;;;23.60;;
47860;SDS011;33620;52.340;5.984;2022-08-19T08:24:09;35.38;;;22.75;;
47860;SDS011;33620;52.340;5.984;2022-08-19T08:26:35;36.25;;;21.42;;
47860;SDS011;33620;52.340;5.984;2022-08-19T08:29:00;38.33;;;25.38;;
47860;SDS011;33620;52.340;5.984;2022-08-19T08:31:26;36.13;;;23.25;;
47860;SDS011;33620;52.340;5.984;2022-08-19T08:33:52;39.55;;;23.83;;
47860;SDS011;33620;52.340;5.984;2022-08-19T08:36:17;35.08;;;22.15;;
47860;SDS011;33620;52.340;5.984;2022-08-19T08:38:43;32.67;;;21.02;;
47860;SDS011;33620;52.340;5.984;2022-08-19T08:41:31;34.92;;;22.02;;
47860;SDS011;33620;52.340;5.984;2022-08-19T08:44:05;37.35;;;22.90;;
47860;SDS011;33620;52.340;5.984;2022-08-19T08:46:35;31.63;;;20.05;;
47860;SDS011;33620;52.340;5.984;2022-08-19T08:51:38;30.75;;;17.58;;
47860;SDS011;33620;52.340;5.984;2022-08-19T08:54:11;29.30;;;17.48;;
47860;SDS011;33620;52.340;5.984;2022-08-19T08:56:39;34.28;;;17.30;;
47860;SDS011;33620;52.340;5.984;2022-08-19T08:59:10;27.90;;;17.10;;
47860;SDS011;33620;52.340;5.984;2022-08-19T09:01:44;28.77;;;17.75;;
47860;SDS011;33620;52.340;5.984;2022-08-19T09:04:09;31.13;;;20.52;;
47860;SDS011;33620;52.340;5.984;2022-08-19T09:09:29;31.90;;;20.20;;
47860;SDS011;33620;52.340;5.984;2022-08-19T09:15:03;29.63;;;20.45;;
47860;SDS011;33620;52.340;5.984;2022-08-19T09:17:32;34.92;;;19.92;;
47860;SDS011;33620;52.340;5.984;2022-08-19T09:22:36;35.35;;;22.52;;
47860;SDS011;33620;52.340;5.984;2022-08-19T09:25:02;32.72;;;20.92;;
47860;SDS011;33620;52.340;5.984;2022-08-19T09:27:29;37.50;;;24.65;;
47860;SDS011;33620;52.340;5.984;2022-08-19T09:29:55;43.40;;;28.17;;
47860;SDS011;33620;52.340;5.984;2022-08-19T09:32:21;42.28;;;26.42;;
47860;SDS011;33620;52.340;5.984;2022-08-19T09:34:47;40.53;;;26.75;;
47860;SDS011;33620;52.340;5.984;2022-08-19T09:37:13;38.08;;;26.13;;
47860;SDS011;33620;52.340;5.984;2022-08-19T09:39:39;35.30;;;23.23;;
47860;SDS011;33620;52.340;5.984;2022-08-19T09:42:09;37.97;;;25.33;;
47860;SDS011;33620;52.340;5.984;2022-08-19T09:44:40;37.10;;;23.35;;
47860;SDS011;33620;52.340;5.984;2022-08-19T09:47:06;33.20;;;21.75;;
47860;SDS011;33620;52.340;5.984;2022-08-19T09:49:32;33.42;;;21.55;;
47860;SDS011;33620;52.340;5.984;2022-08-19T09:51:58;32.72;;;21.48;;
47860;SDS011;33620;52.340;5.984;2022-08-19T09:54:24;36.55;;;23.13;;
47860;SDS011;33620;52.340;5.984;2022-08-19T09:56:51;31.27;;;21.23;;
47860;SDS011;33620;52.340;5.984;2022-08-19T09:59:17;34.25;;;22.38;;
47860;SDS011;33620;52.340;5.984;2022-08-19T10:01:43;34.83;;;22.50;;
47860;SDS011;33620;52.340;5.984;2022-08-19T10:04:08;35.83;;;23.95;;
47860;SDS011;33620;52.340;5.984;2022-08-19T10:06:34;36.45;;;23.08;;
47860;SDS011;33620;52.340;5.984;2022-08-19T10:09:03;38.30;;;25.60;;
47860;SDS011;33620;52.340;5.984;2022-08-19T10:11:31;35.15;;;23.73;;
47860;SDS011;33620;52.340;5.984;2022-08-19T10:13:57;35.33;;;23.48;;
47860;SDS011;33620;52.340;5.984;2022-08-19T10:16:24;34.83;;;23.98;;
47860;SDS011;33620;52.340;5.984;2022-08-19T10:18:50;36.75;;;23.75;;
47860;SDS011;33620;52.340;5.984;2022-08-19T10:21:18;37.97;;;26.42;;
47860;SDS011;33620;52.340;5.984;2022-08-19T10:23:49;39.55;;;25.85;;
47860;SDS011;33620;52.340;5.984;2022-08-19T10:26:18;34.65;;;23.55;;
47860;SDS011;33620;52.340;5.984;2022-08-19T10:28:45;33.95;;;22.20;;
47860;SDS011;33620;52.340;5.984;2022-08-19T10:31:12;31.75;;;20.27;;
47860;SDS011;33620;52.340;5.984;2022-08-19T10:33:40;32.08;;;18.83;;
47860;SDS011;33620;52.340;5.984;2022-08-19T10:36:10;31.63;;;21.38;;
47860;SDS011;33620;52.340;5.984;2022-08-19T10:38:42;30.63;;;17.85;;
47860;SDS011;33620;52.340;5.984;2022-08-19T10:41:13;23.52;;;14.52;;
47860;SDS011;33620;52.340;5.984;2022-08-19T10:43:41;23.38;;;14.63;;
47860;SDS011;33620;52.340;5.984;2022-08-19T10:46:11;20.30;;;11.00;;
47860;SDS011;33620;52.340;5.984;2022-08-19T10:48:38;19.38;;;10.70;;
47860;SDS011;33620;52.340;5.984;2022-08-19T10:51:04;23.80;;;13.90;;
47860;SDS011;33620;52.340;5.984;2022-08-19T10:53:49;25.00;;;15.73;;
47860;SDS011;33620;52.340;5.984;2022-08-19T10:56:14;24.20;;;14.52;;
47860;SDS011;33620;52.340;5.984;2022-08-19T10:58:58;29.05;;;18.83;;
47860;SDS011;33620;52.340;5.984;2022-08-19T11:01:27;32.30;;;21.90;;
47860;SDS011;33620;52.340;5.984;2022-08-19T11:03:54;37.35;;;24.35;;
47860;SDS011;33620;52.340;5.984;2022-08-19T11:06:22;35.08;;;23.23;;
47860;SDS011;33620;52.340;5.984;2022-08-19T11:08:50;36.35;;;23.83;;
47860;SDS011;33620;52.340;5.984;2022-08-19T11:11:16;38.83;;;26.30;;
47860;SDS011;33620;52.340;5.984;2022-08-19T11:13:41;37.67;;;24.23;;
47860;SDS011;33620;52.340;5.984;2022-08-19T11:16:10;39.97;;;26.98;;
47860;SDS011;33620;52.340;5.984;2022-08-19T11:18:39;40.58;;;26.80;;
47860;SDS011;33620;52.340;5.984;2022-08-19T11:21:10;37.15;;;24.65;;
47860;SDS011;33620;52.340;5.984;2022-08-19T11:23:43;35.53;;;23.90;;
47860;SDS011;33620;52.340;5.984;2022-08-19T11:26:10;31.60;;;20.27;;
47860;SDS011;33620;52.340;5.984;2022-08-19T11:28:36;35.80;;;21.75;;
47860;SDS011;33620;52.340;5.984;2022-08-19T11:31:02;30.15;;;20.42;;
47860;SDS011;33620;52.340;5.984;2022-08-19T11:33:28;34.22;;;22.13;;
47860;SDS011;33620;52.340;5.984;2022-08-19T11:35:56;33.55;;;21.17;;
47860;SDS011;33620;52.340;5.984;2022-08-19T11:38:23;35.05;;;22.10;;
47860;SDS011;33620;52.340;5.984;2022-08-19T11:40:56;33.40;;;21.13;;
47860;SDS011;33620;52.340;5.984;2022-08-19T11:43:23;34.08;;;20.17;;
47860;SDS011;33620;52.340;5.984;2022-08-19T11:45:49;31.48;;;18.00;;
47860;SDS011;33620;52.340;5.984;2022-08-19T11:48:15;30.55;;;19.55;;
47860;SDS011;33620;52.340;5.984;2022-08-19T11:50:40;30.55;;;18.95;;
47860;SDS011;33620;52.340;5.984;2022-08-19T11:53:08;28.88;;;18.15;;
47860;SDS011;33620;52.340;5.984;2022-08-19T11:55:36;27.00;;;16.65;;
47860;SDS011;33620;52.340;5.984;2022-08-19T11:58:04;28.52;;;16.75;;
47860;SDS011;33620;52.340;5.984;2022-08-19T12:00:31;27.58;;;17.20;;
47860;SDS011;33620;52.340;5.984;2022-08-19T12:02:57;29.30;;;16.70;;
47860;SDS011;33620;52.340;5.984;2022-08-19T12:05:22;26.05;;;16.70;;
47860;SDS011;33620;52.340;5.984;2022-08-19T12:07:47;24.52;;;14.65;;
47860;SDS011;33620;52.340;5.984;2022-08-19T12:10:13;27.95;;;16.63;;
47860;SDS011;33620;52.340;5.984;2022-08-19T12:12:39;23.85;;;15.18;;
47860;SDS011;33620;52.340;5.984;2022-08-19T12:15:07;24.70;;;13.10;;
47860;SDS011;33620;52.340;5.984;2022-08-19T12:17:35;29.38;;;15.30;;
47860;SDS011;33620;52.340;5.984;2022-08-19T12:20:01;23.35;;;13.93;;
47860;SDS011;33620;52.340;5.984;2022-08-19T12:22:27;26.83;;;13.35;;
47860;SDS011;33620;52.340;5.984;2022-08-19T12:24:53;22.13;;;13.00;;
47860;SDS011;33620;52.340;5.984;2022-08-19T12:27:19;25.13;;;14.27;;
47860;SDS011;33620;52.340;5.984;2022-08-19T12:29:45;24.85;;;14.00;;
47860;SDS011;33620;52.340;5.984;2022-08-19T12:32:11;24.42;;;13.32;;
47860;SDS011;33620;52.340;5.984;2022-08-19T12:34:36;20.00;;;11.95;;
47860;SDS011;33620;52.340;5.984;2022-08-19T12:37:03;23.90;;;13.68;;
47860;SDS011;33620;52.340;5.984;2022-08-19T12:39:33;20.65;;;11.65;;
47860;SDS011;33620;52.340;5.984;2022-08-19T12:42:03;22.35;;;13.30;;
47860;SDS011;33620;52.340;5.984;2022-08-19T12:44:29;21.40;;;11.88;;
47860;SDS011;33620;52.340;5.984;2022-08-19T12:46:56;22.52;;;13.48;;
47860;SDS011;33620;52.340;5.984;2022-08-19T12:49:23;22.25;;;13.18;;
47860;SDS011;33620;52.340;5.984;2022-08-19T12:51:49;20.33;;;13.02;;
47860;SDS011;33620;52.340;5.984;2022-08-19T12:54:15;21.40;;;12.32;;
47860;SDS011;33620;52.340;5.984;2022-08-19T12:56:40;22.45;;;12.40;;
47860;SDS011;33620;52.340;5.984;2022-08-19T12:59:07;20.27;;;11.68;;
47860;SDS011;33620;52.340;5.984;2022-08-19T13:01:33;18.85;;;11.98;;
47860;SDS011;33620;52.340;5.984;2022-08-19T13:03:59;23.30;;;13.55;;
47860;SDS011;33620;52.340;5.984;2022-08-19T13:06:25;21.17;;;13.57;;
47860;SDS011;33620;52.340;5.984;2022-08-19T13:08:51;24.60;;;15.18;;
47860;SDS011;33620;52.340;5.984;2022-08-19T13:11:17;21.92;;;14.63;;
47860;SDS011;33620;52.340;5.984;2022-08-19T13:13:45;25.58;;;15.10;;
47860;SDS011;33620;52.340;5.984;2022-08-19T13:16:13;25.90;;;14.93;;
47860;SDS011;33620;52.340;5.984;2022-08-19T13:18:40;23.33;;;14.80;;
47860;SDS011;33620;52.340;5.984;2022-08-19T13:21:07;23.05;;;13.95;;
47860;SDS011;33620;52.340;5.984;2022-08-19T13:23:34;26.45;;;14.60;;
47860;SDS011;33620;52.340;5.984;2022-08-19T13:26:02;24.10;;;14.13;;
47860;SDS011;33620;52.340;5.984;2022-08-19T13:28:29;22.65;;;13.30;;
47860;SDS011;33620;52.340;5.984;2022-08-19T13:31:16;24.27;;;14.65;;
47860;SDS011;33620;52.340;5.984;2022-08-19T13:34:01;24.00;;;14.77;;
47860;SDS011;33620;52.340;5.984;2022-08-19T13:36:27;28.45;;;16.23;;
47860;SDS011;33620;52.340;5.984;2022-08-19T13:38:53;24.58;;;15.80;;
47860;SDS011;33620;52.340;5.984;2022-08-19T13:41:18;29.08;;;17.55;;
47860;SDS011;33620;52.340;5.984;2022-08-19T13:43:44;26.42;;;14.77;;
47860;SDS011;33620;52.340;5.984;2022-08-19T13:46:10;28.48;;;17.70;;
47860;SDS011;33620;52.340;5.984;2022-08-19T13:48:38;27.98;;;17.27;;
47860;SDS011;33620;52.340;5.984;2022-08-19T13:51:05;33.15;;;21.02;;
47860;SDS011;33620;52.340;5.984;2022-08-19T13:53:34;32.50;;;22.10;;
47860;SDS011;33620;52.340;5.984;2022-08-19T13:56:04;31.95;;;21.55;;
47860;SDS011;33620;52.340;5.984;2022-08-19T13:58:31;34.28;;;24.33;;
47860;SDS011;33620;52.340;5.984;2022-08-19T14:00:57;39.83;;;26.40;;
47860;SDS011;33620;52.340;5.984;2022-08-19T14:03:24;33.95;;;22.90;;
47860;SDS011;33620;52.340;5.984;2022-08-19T14:05:50;33.80;;;22.80;;
47860;SDS011;33620;52.340;5.984;2022-08-19T14:08:15;35.72;;;23.67;;
47860;SDS011;33620;52.340;5.984;2022-08-19T14:10:40;34.33;;;23.52;;
47860;SDS011;33620;52.340;5.984;2022-08-19T14:13:07;36.67;;;25.90;;
47860;SDS011;33620;52.340;5.984;2022-08-19T14:15:33;38.75;;;24.63;;
47860;SDS011;33620;52.340;5.984;2022-08-19T14:17:58;39.95;;;26.10;;
47860;SDS011;33620;52.340;5.984;2022-08-19T14:20:24;37.83;;;27.85;;
47860;SDS011;33620;52.340;5.984;2022-08-19T14:22:49;39.45;;;27.55;;
47860;SDS011;33620;52.340;5.984;2022-08-19T14:25:17;34.88;;;24.08;;
47860;SDS011;33620;52.340;5.984;2022-08-19T14:27:45;35.75;;;24.58;;
47860;SDS011;33620;52.340;5.984;2022-08-19T14:30:12;39.08;;;25.38;;
47860;SDS011;33620;52.340;5.984;2022-08-19T14:32:40;37.85;;;25.35;;
47860;SDS011;33620;52.340;5.984;2022-08-19T14:35:08;37.95;;;26.73;;
47860;SDS011;33620;52.340;5.984;2022-08-19T14:37:34;34.75;;;22.42;;